Flight Track Log - Related Links

Times and Time Zones

All times are in EDT time to prevent confusion due to time zone crossing. See the EJA831 flight status page for this flight to view local times or setup timezone preferences in your user account.

Time Position Orientation Groundspeed Altitude Reporting Facility
EDT Latitude Longitude Course Direction KTS MPH feet Rate Location/Type
Fri 02:28:02 PM 37.7500 -122.3000 147° Southeast 173 199 2,900  Level Northern Cal TRACON
Fri 02:29:02 PM 37.7833 -122.3500 310° West 196 226 5,000 1,100 Climbing Northern Cal TRACON
Fri 02:30:02 PM 37.8000 -122.4167 288° West 212 244 5,100 50 Climbing Northern Cal TRACON
Fri 02:31:02 PM 37.8000 -122.4833 270° West 217 250 5,100  Level Northern Cal TRACON
Fri 02:32:02 PM 37.7500 -122.5000 195° South 201 231 5,100  Level Northern Cal TRACON
Fri 02:33:00 PM 37.4270 -121.9811 147° Southeast  Level Estimated
Fri 02:33:02 PM 37.6833 -122.5000 180° South 214 246 5,100  Level Northern Cal TRACON
Fri 02:34:02 PM 37.6333 -122.4500 142° Southeast 213 245 5,100  Level Northern Cal TRACON
Fri 02:35:03 PM 37.5833 -122.4167 152° Southeast 205 236 5,100  Level Northern Cal TRACON
Fri 02:36:09 PM 37.5167 -122.3833 158° South 233 268 5,100  Level Northern Cal TRACON
Fri 02:37:03 PM 37.4667 -122.3333 142° Southeast 273 314 5,100  Level Northern Cal TRACON
Fri 02:38:09 PM 37.4000 -122.2833 149° Southeast 264 304 5,100  Level Northern Cal TRACON
Fri 02:39:09 PM 37.3500 -122.2167 133° Southeast 249 287 5,100  Level Northern Cal TRACON
Fri 02:40:09 PM 37.3333 -122.1500 107° East 217 250 5,100  Level Northern Cal TRACON
Fri 02:41:09 PM 37.3167 -122.0667 104° East 223 257 5,100 -200 Level Northern Cal TRACON
Fri 02:42:09 PM 37.3000 -122.0000 107° East 215 247 4,700 -500 Descending Northern Cal TRACON
Fri 02:43:09 PM 37.2833 -121.9333 107° East 193 222 4,100 -1,050 Descending Northern Cal TRACON
Fri 02:44:09 PM 37.3000 -121.9000 58° Northeast 167 192 2,600 -1,733 Descending Northern Cal TRACON
Fri 02:44:39 PM 37.3197 -121.8933 15° North 180 207 1,500 -1,630 Descending Oakland Center
Fri 02:45:41 PM 37.3556 -121.9233 326° Northwest 144 166 100 -1,355 Descending Oakland Center

Login

Don't have an account? Register now (free) for customized features, flight alerts, and more!